Latest Weather Observations for Badgingarra

IDW60801

Issued at 5:32 pm WST Monday 6 July 2015 (issued every 30 minutes, with the page automatically refreshed every 10 minutes)

About weather observations | Map of weather stations | Latest weather observations for WA | Other Formats
Station Details ID: 009037 Name: BADGINGARRA RESEARCH STN Lat: -30.34 Lon: 115.54 Height: 275.0 m
Data from the previous 72 hours. | See also: Recent months at Badgingarra
Date/Time
WST
Temp
°C
App
Temp
°C
Dew
Point
Rel
Hum
%
Delta-T
°C
Wind Press
QNH
hPa
Press
MSL
hPa
Rain
since 9 am
mm
Dir
 
Spd
km/h
Gust
km/h
Spd
kts
Gust
kts
06/05:30pm 16.4 14.7 12.6 78 2.1 WSW 13 15 7 8 - - 0.0
06/05:00pm 18.0 17.0 12.2 69 3.2 WSW 9 11 5 6 - - 0.0
06/04:30pm 18.5 18.0 12.0 66 3.6 W 6 13 3 7 - - 0.0
06/04:00pm 19.0 18.8 11.8 63 4.0 WSW 4 6 2 3 - - 0.0
06/03:30pm 18.2 17.2 11.0 63 3.9 WSW 7 11 4 6 - - 0.0
06/03:00pm 19.0 18.1 10.8 59 4.5 WSW 6 9 3 5 - - 0.0
06/02:30pm 18.7 17.9 11.0 61 4.2 W 6 9 3 5 - - 0.0
06/02:00pm 19.4 18.7 11.4 60 4.4 WNW 6 11 3 6 - - 0.0
06/01:30pm 19.4 18.6 10.9 58 4.7 NNW 6 9 3 5 - - 0.0
06/01:00pm 18.8 17.9 10.6 59 4.5 WNW 6 11 3 6 - - 0.0
06/12:30pm 18.5 17.8 11.3 63 4.0 N 6 9 3 5 - - 0.0
06/12:00pm 17.4 16.9 11.9 70 3.1 NNW 6 7 3 4 - - 0.0
06/11:30am 17.6 17.1 12.1 70 3.1 N 6 9 3 5 - - 0.0
06/11:00am 16.9 16.4 12.6 76 2.4 NNE 7 11 4 6 - - 0.0
06/10:30am 16.1 15.4 13.2 83 1.6 NE 9 13 5 7 - - 0.0
06/10:00am 14.8 13.7 13.2 90 0.9 NNE 11 17 6 9 - - 0.0
06/09:30am 13.6 13.2 13.0 96 0.3 NNE 7 9 4 5 - - 0.0
06/09:00am 12.5 12.0 12.5 100 0.0 NNE 7 9 4 5 - - 0.2
06/08:30am 11.4 10.7 11.4 100 0.0 NNE 6 9 3 5 - - 0.2
06/08:00am 10.6 9.7 10.6 100 0.0 NNE 6 6 3 3 - - 0.2
06/07:30am 9.2 8.3 9.2 100 0.0 NNE 4 6 2 3 - - 0.2
06/07:00am 8.8 7.4 8.8 100 0.0 NE 6 7 3 4 - - 0.2
06/06:30am 9.8 9.0 9.8 100 0.0 NE 4 6 2 3 - - 0.2
06/06:00am 7.9 6.7 7.9 100 0.0 E 4 6 2 3 - - 0.0
06/05:30am 9.9 8.6 9.9 100 0.0 ENE 7 7 4 4 - - 0.0
06/05:00am 9.7 8.5 9.7 100 0.0 NE 6 6 3 3 - - 0.0
06/04:30am 9.6 9.5 9.6 100 0.0 CALM 0 4 0 2 - - 0.0
06/04:00am 9.2 8.7 9.2 100 0.0 ENE 2 4 1 2 - - 0.0
06/03:30am 8.9 7.5 8.9 100 0.0 NNE 6 6 3 3 - - 0.0
06/03:00am 9.4 8.2 9.4 100 0.0 NNE 6 6 3 3 - - 0.0
06/02:30am 9.3 8.8 9.3 100 0.0 NNE 2 4 1 2 - - 0.0
06/02:00am 10.6 10.1 10.6 100 0.0 SSW 4 4 2 2 - - 0.0
06/01:30am 8.9 7.9 8.9 100 0.0 SE 4 4 2 2 - - 0.0
06/01:00am 9.6 8.7 9.1 97 0.3 E 4 4 2 2 - - 0.0
06/12:30am 9.7 9.5 8.9 95 0.4 CALM 0 0 0 0 - - 0.0
06/12:00am 11.3 11.3 11.3 100 0.0 S 2 2 1 1 - - 0.0
 
Date/Time
WST
Temp
°C
App
Temp
°C
Dew
Point
Rel
Hum
%
Delta-T
°C
Wind Press
QNH
hPa
Press
MSL
hPa
Rain
since 9 am
mm
Dir
 
Spd
km/h
Gust
km/h
Spd
kts
Gust
kts
05/11:30pm 10.4 9.6 9.8 96 0.3 S 4 4 2 2 - - 0.0
05/11:00pm 11.0 10.3 10.2 95 0.4 S 4 4 2 2 - - 0.0
05/10:30pm 11.6 11.5 10.8 95 0.4 S 2 4 1 2 - - 0.0
05/10:00pm 11.5 10.4 10.7 95 0.4 SSE 7 9 4 5 - - 0.0
05/09:30pm 11.2 10.2 10.4 95 0.4 SSW 6 6 3 3 - - 0.0
05/09:00pm 12.2 12.3 11.4 95 0.4 SW 2 2 1 1 - - 0.0
05/08:30pm 11.2 10.0 10.3 94 0.5 SW 7 7 4 4 - - 0.0
05/08:00pm 11.6 10.7 10.7 94 0.5 SW 6 6 3 3 - - 0.0
05/07:30pm 12.1 11.7 11.2 94 0.5 SSW 4 6 2 3 - - 0.0
05/07:00pm 11.4 10.1 10.1 92 0.7 SSW 7 7 4 4 - - 0.0
05/06:30pm 11.9 9.9 10.1 89 0.9 SW 11 13 6 7 - - 0.0
05/06:00pm 13.8 11.5 11.7 87 1.1 WSW 15 17 8 9 - - 0.0
05/05:30pm 14.4 12.3 11.0 80 1.8 WSW 13 15 7 8 - - 0.0
05/05:00pm 16.7 14.5 10.8 68 3.2 W 13 17 7 9 - - 0.0
05/04:30pm 17.1 14.1 10.7 66 3.5 WSW 17 22 9 12 - - 0.0
05/04:00pm 17.6 15.1 11.2 66 3.5 WSW 15 19 8 10 - - 0.0
05/03:30pm 18.7 16.3 11.3 62 4.1 WSW 15 20 8 11 - - 0.0
05/03:00pm 19.2 17.4 10.7 58 4.7 W 11 20 6 11 - - 0.0
05/02:30pm 19.0 16.8 9.2 53 5.2 WNW 11 19 6 10 - - 0.0
05/02:00pm 18.3 17.1 10.4 60 4.3 WNW 7 15 4 8 - - 0.0
05/01:30pm 17.7 16.1 11.5 67 3.4 WSW 11 15 6 8 - - 0.0
05/01:00pm 18.6 17.9 11.9 65 3.7 WSW 7 15 4 8 - - 0.0
05/12:30pm 18.2 17.9 11.5 65 3.7 W 4 7 2 4 - - 0.0
05/12:00pm 16.3 16.5 11.9 75 2.4 E 2 4 1 2 - - 0.0
05/11:30am 16.3 16.1 13.0 81 1.9 SSE 6 7 3 4 - - 0.0
05/11:00am 16.6 16.4 12.9 79 2.1 SSE 6 11 3 6 - - 0.0
05/10:30am 16.2 16.7 13.9 86 1.3 NE 4 6 2 3 - - 0.0
05/10:00am 15.0 15.9 13.9 93 0.6 NNE 2 6 1 3 - - 0.0
05/09:30am 14.4 15.1 14.4 100 0.0 N 4 6 2 3 - - 0.0
05/09:00am 13.4 13.7 13.4 100 0.0 NNE 4 4 2 2 - - 0.4
05/08:30am 12.4 12.0 12.4 100 0.0 NNE 6 6 3 3 - - 0.4
05/08:00am 11.9 11.7 11.9 100 0.0 NNE 4 4 2 2 - - 0.4
05/07:30am 11.6 11.3 11.6 100 0.0 NNE 4 6 2 3 - - 0.4
05/07:00am 10.0 9.7 10.0 100 0.0 NNE 2 4 1 2 - - 0.4
05/06:30am 9.2 8.3 9.2 100 0.0 N 4 4 2 2 - - 0.4
05/06:00am 9.6 8.8 9.6 100 0.0 NNE 4 4 2 2 - - 0.4
05/05:30am 10.4 9.4 10.4 100 0.0 NNE 6 7 3 4 - - 0.2
05/05:00am 9.7 8.9 9.7 100 0.0 NNE 4 4 2 2 - - 0.2
05/04:30am 9.8 8.7 9.8 100 0.0 NNE 6 6 3 3 - - 0.2
05/04:00am 11.3 11.7 11.3 100 0.0 CALM 0 0 0 0 - - 0.2
05/03:30am 11.5 11.6 11.5 100 0.0 WNW 2 2 1 1 - - 0.2
05/03:00am 11.5 10.8 11.5 100 0.0 NNE 6 6 3 3 - - 0.0
05/02:30am 10.4 9.8 10.4 100 0.0 NNE 4 6 2 3 - - 0.0
05/02:00am 10.9 10.1 10.9 100 0.0 N 6 6 3 3 - - 0.0
05/01:30am 9.8 9.8 9.8 100 0.0 CALM 0 0 0 0 - - 0.0
05/01:00am 11.0 10.2 11.0 100 0.0 N 6 6 3 3 - - 0.0
05/12:30am 10.9 10.4 10.9 100 0.0 NNE 4 4 2 2 - - 0.0
05/12:00am 11.3 11.7 11.3 100 0.0 CALM 0 0 0 0 - - 0.0
 
Date/Time
WST
Temp
°C
App
Temp
°C
Dew
Point
Rel
Hum
%
Delta-T
°C
Wind Press
QNH
hPa
Press
MSL
hPa
Rain
since 9 am
mm
Dir
 
Spd
km/h
Gust
km/h
Spd
kts
Gust
kts
04/11:30pm 9.1 8.8 8.5 96 0.3 CALM 0 0 0 0 - - 0.0
04/11:00pm 9.1 8.8 8.5 96 0.3 CALM 0 0 0 0 - - 0.0
04/10:30pm 10.9 11.2 10.9 100 0.0 CALM 0 0 0 0 - - 0.0
04/10:00pm 10.1 10.0 9.3 95 0.4 CALM 0 0 0 0 - - 0.0
04/09:30pm 11.3 11.5 10.7 96 0.3 CALM 0 0 0 0 - - 0.0
04/09:00pm 11.4 11.2 10.6 95 0.4 NW 2 2 1 1 - - 0.0
04/08:30pm 13.4 13.5 12.6 95 0.4 NW 4 6 2 3 - - 0.0
04/08:00pm 13.4 13.4 12.5 94 0.5 W 4 6 2 3 - - 0.0
04/07:30pm 13.6 13.1 12.7 94 0.5 SW 7 9 4 5 - - 0.0
04/07:00pm 14.6 14.4 13.6 94 0.6 SW 7 9 4 5 - - 0.0
04/06:30pm 15.0 14.8 13.7 92 0.7 WSW 7 9 4 5 - - 0.0
04/06:00pm 15.3 13.9 13.5 89 1.0 W 13 17 7 9 - - 0.0
04/05:30pm 15.2 14.5 13.2 88 1.1 WSW 9 13 5 7 - - 0.0
04/05:00pm 15.4 13.7 12.5 83 1.6 WSW 13 17 7 9 - - 0.0
04/04:30pm 16.7 14.7 12.7 77 2.2 WSW 15 20 8 11 - - 0.0
04/04:00pm 18.7 17.5 12.9 69 3.3 WSW 11 15 6 8 - - 0.0
04/03:30pm 18.9 17.1 12.2 65 3.8 WSW 13 17 7 9 - - 0.0
04/03:00pm 18.6 17.2 13.5 72 2.9 WSW 13 17 7 9 - - 0.0
04/02:30pm 18.4 16.4 12.8 70 3.2 WSW 15 20 8 11 - - 0.0
04/02:00pm 17.9 15.6 13.0 73 2.8 W 17 26 9 14 - - 0.0
04/01:30pm 19.3 18.4 13.7 70 3.2 WSW 11 19 6 10 - - 0.0
04/01:00pm 18.2 17.3 12.6 70 3.2 W 9 15 5 8 - - 0.0
04/12:30pm 17.5 17.0 12.8 74 2.7 W 7 11 4 6 - - 0.0
04/12:00pm 18.4 18.2 13.5 73 2.8 W 7 13 4 7 - - 0.0
04/11:30am 17.7 17.8 12.8 73 2.8 NW 4 7 2 4 - - 0.0
04/11:00am 17.5 17.4 13.2 76 2.4 N 6 9 3 5 - - 0.0
04/10:30am 16.6 16.7 13.9 84 1.5 NNE 6 9 3 5 - - 0.0
04/10:00am 15.1 14.6 13.8 92 0.7 N 9 11 5 6 - - 0.0
04/09:30am 13.9 13.7 13.0 94 0.5 N 6 7 3 4 - - 0.0
04/09:00am 12.9 12.5 12.3 96 0.3 N 6 6 3 3 - - 0.4
04/08:30am 12.7 12.8 12.7 100 0.0 NE 4 4 2 2 - - 0.4
04/08:00am 11.7 11.1 11.7 100 0.0 ENE 6 6 3 3 - - 0.4
04/07:30am 11.0 10.2 11.0 100 0.0 ENE 6 6 3 3 - - 0.4
04/07:00am 10.7 9.8 10.7 100 0.0 ENE 6 6 3 3 - - 0.4
04/06:30am 10.6 10.4 10.6 100 0.0 ESE 2 4 1 2 - - 0.4
04/06:00am 9.4 8.9 9.4 100 0.0 NE 2 2 1 1 - - 0.4
04/05:30am 10.7 10.2 10.7 100 0.0 NE 4 4 2 2 - - 0.2
04/05:00am 10.8 10.7 10.8 100 0.0 NE 2 4 1 2 - - 0.2
04/04:30am 11.2 11.6 11.2 100 0.0 CALM 0 0 0 0 - - 0.2
04/04:00am 10.8 11.1 10.8 100 0.0 CALM 0 0 0 0 - - 0.2
04/03:30am 12.2 12.9 12.2 100 0.0 CALM 0 0 0 0 - - 0.2
04/03:00am 12.1 12.8 12.1 100 0.0 CALM 0 0 0 0 - - 0.2
04/02:30am 11.7 11.5 11.7 100 0.0 N 4 4 2 2 - - 0.2
04/02:00am 11.5 11.2 11.5 100 0.0 NNE 4 6 2 3 - - 0.2
04/01:30am 11.9 11.7 11.9 100 0.0 NNE 4 4 2 2 - - 0.2
04/01:00am 11.4 11.8 11.4 100 0.0 CALM 0 0 0 0 - - 0.2
04/12:30am 10.8 11.1 10.8 100 0.0 CALM 0 0 0 0 - - 0.2
04/12:00am 10.2 9.9 10.1 99 0.1 ENE 2 2 1 1 - - 0.2
 
Date/Time
WST
Temp
°C
App
Temp
°C
Dew
Point
Rel
Hum
%
Delta-T
°C
Wind Press
QNH
hPa
Press
MSL
hPa
Rain
since 9 am
mm
Dir
 
Spd
km/h
Gust
km/h
Spd
kts
Gust
kts
03/11:30pm 11.4 11.1 11.4 100 0.0 SSE 4 6 2 3 - - 0.2
03/11:00pm 12.2 11.7 12.2 100 0.0 SSE 6 6 3 3 - - 0.2
03/10:30pm 11.9 11.2 11.4 97 0.3 SSE 6 6 3 3 - - 0.2
03/10:00pm 12.6 12.7 12.6 100 0.0 SSE 4 6 2 3 - - 0.2
03/09:30pm 10.0 8.7 9.2 95 0.4 SSE 6 9 3 5 - - 0.2
03/09:00pm 12.3 12.5 11.7 96 0.3 SSE 2 4 1 2 - - 0.2
03/08:30pm 12.3 11.7 11.7 96 0.3 SSE 6 6 3 3 - - 0.2
03/08:00pm 12.3 11.1 11.5 95 0.4 S 9 11 5 6 - - 0.2
03/07:30pm 12.7 11.6 11.8 94 0.5 S 9 11 5 6 - - 0.2
03/07:00pm 13.5 11.9 12.7 95 0.4 SSW 13 15 7 8 - - 0.2
03/06:30pm 13.5 11.8 12.6 94 0.5 SSW 13 13 7 7 - - 0.2
03/06:00pm 14.0 12.7 12.6 91 0.8 SW 11 13 6 7 - - 0.2

Other Formats:

Comma delimited format used in spreadsheet applications
http://www.bom.gov.au/fwo/IDW60801/IDW60801.94603.axf

JavaScript Object Notation format (JSON) in row-major order
http://www.bom.gov.au/fwo/IDW60801/IDW60801.94603.json